Startpagina
METAR-TAF:

METAR-TAF

Vliegvelden :

Luchthaven Shanghai Pudong

Shanghai-Pudong, China

breedte: 31-07N, lengte: 121-46E, hoogte: 4 m

Actueel weer

Dit bericht is 25 minuten geleden gemaakt, om 18:30 UTC
Wind 10 kt uit het noordnoordwesten
Temperatuur 16°C
Vochtigheid 94%
Druk 1017 hPa
Zicht: 6000 m
Gebroken wolken op 800 ft
Geheel bewolkt op 3300 ft
lichte regen

METAR: ZSPD 151830Z 34005MPS 6000 -RA BKN008 OVC033 16/15 Q1017 NOSIG

Tijdstip: 02:55 (18:55 UTC)

Verwachting

Dit bericht is 3 uur en het 27 minuten geleden gemaakt, om 15:28 UTC
Verwachting geldig van 15 om 18 UTC tot 16 om 18 UTC
Wind 8 kt uit het noordnoordwesten
Zicht: 6000 m
Gebroken wolken op 1500 ft

TAF: ZSPD 151528Z 1518/1618 34004MPS 6000 BKN015 TX22/1606Z TN15/1521Z

Waarnemingen en weersverwachtingen van meer dan 4000 vliegvelden (METAR en TAF).

De beschikbare stations zijn de gele en rode punten op de kaart.

Ga met uw muis naar het station om de naam te zien.

Klik dan om waarnemingen en weersverwachtingen te zien.

kaart wijzigen: klik op de groene knoppen met een zwart kruis om in te zoomen, op de groene knop met een streepje om uit te zoomen of op de groene pijlen voor aangrenzende kaarten.


METAR-TAF: